Terminal Aerodrome Forecast
Issued by NWS

Home | Current Version | Previous Version | Text Only | Print | Product List | Glossary On
Versions: 1 2 3 4 5 6 7 8 9 10 11 12 13 14 15 16 17 18 19 20 21
000
FTUS44 KLZK 252330
TAFHRO
TAF
KHRO 252330Z 2600/2624 28009G17KT P6SM OVC025
     FM260500 26006KT P6SM OVC015
     FM261400 25005KT P6SM OVC025
     FM261600 20006KT P6SM SCT040=

USA.gov is the U.S. government's official web portal to all federal, state and local government web resources and services.